createdAt,value
2022-08-21T00:00:25.370Z,101370.06
2022-08-21T00:02:59.645Z,101360.50
2022-08-21T00:05:27.046Z,101362.66
2022-08-21T00:07:54.891Z,101357.38
2022-08-21T00:10:22.452Z,101351.38
2022-08-21T00:12:49.507Z,101350.38
2022-08-21T00:15:31.756Z,101349.63
2022-08-21T00:17:58.742Z,101345.75
2022-08-21T00:20:26.230Z,101346.88
2022-08-21T00:22:53.370Z,101350.16
2022-08-21T00:25:24.323Z,101346.22
2022-08-21T00:27:54.544Z,101333.72
2022-08-21T00:30:26.116Z,101335.69
2022-08-21T00:32:54.779Z,101337.97
2022-08-21T00:35:25.352Z,101336.69
2022-08-21T00:37:55.115Z,101336.97
2022-08-21T00:40:27.174Z,101341.72
2022-08-21T00:42:54.175Z,101336.41
2022-08-21T00:45:22.718Z,101339.72
2022-08-21T00:47:51.154Z,101330.00
2022-08-21T00:50:21.708Z,101333.56
2022-08-21T00:52:51.468Z,101333.66
2022-08-21T00:55:18.990Z,101338.94
2022-08-21T00:57:50.328Z,101342.03
2022-08-21T01:00:22.851Z,101337.78
2022-08-21T01:02:49.680Z,101348.47
2022-08-21T01:05:26.873Z,101337.47
2022-08-21T01:07:58.967Z,101331.69
2022-08-21T01:10:35.688Z,101334.41
2022-08-21T01:13:14.011Z,101319.56
2022-08-21T01:15:45.767Z,101337.00
2022-08-21T01:18:16.309Z,101345.13
2022-08-21T01:20:53.049Z,101343.63
2022-08-21T01:23:19.843Z,101346.22
2022-08-21T01:25:46.602Z,101345.06
2022-08-21T01:28:15.146Z,101349.56
2022-08-21T01:30:43.648Z,101345.16
2022-08-21T01:33:11.138Z,101349.94
2022-08-21T01:35:38.130Z,101344.38
2022-08-21T01:38:04.923Z,101353.22
2022-08-21T01:40:31.690Z,101344.81
2022-08-21T01:42:58.575Z,101342.88
2022-08-21T01:45:25.490Z,101347.38
2022-08-21T01:47:52.572Z,101343.38
2022-08-21T01:50:21.501Z,101351.16
2022-08-21T01:52:48.783Z,101337.19
2022-08-21T01:55:17.324Z,101346.38
2022-08-21T01:57:44.716Z,101337.34
2022-08-21T02:00:14.011Z,101342.78
2022-08-21T02:02:43.106Z,101350.66
2022-08-21T02:05:11.637Z,101335.50
2022-08-21T02:07:44.218Z,101340.81
2022-08-21T02:10:14.838Z,101345.06
2022-08-21T02:12:41.598Z,101343.38
2022-08-21T02:15:10.355Z,101341.38
2022-08-21T02:17:48.159Z,101330.81
2022-08-21T02:20:36.898Z,101331.88
2022-08-21T02:23:05.179Z,101326.06
2022-08-21T02:25:32.332Z,101331.72
2022-08-21T02:28:00.309Z,101337.75
2022-08-21T02:30:33.912Z,101333.41
2022-08-21T02:33:01.270Z,101333.97
2022-08-21T02:35:28.440Z,101330.03
2022-08-21T02:37:59.239Z,101329.88
2022-08-21T02:40:31.747Z,101329.97
2022-08-21T02:42:59.590Z,101312.78
2022-08-21T02:45:27.314Z,101324.53
2022-08-21T02:47:56.987Z,101317.69
2022-08-21T02:50:30.578Z,101313.34
2022-08-21T02:52:58.134Z,101318.75
2022-08-21T02:55:27.538Z,101322.47
2022-08-21T02:57:55.931Z,101318.13
2022-08-21T03:00:24.045Z,101321.31
2022-08-21T03:02:51.495Z,101312.16
2022-08-21T03:05:19.131Z,101313.34
2022-08-21T03:07:47.401Z,101324.09
2022-08-21T03:10:14.954Z,101315.88
2022-08-21T03:12:42.285Z,101315.84
2022-08-21T03:15:11.790Z,101319.53
2022-08-21T03:17:38.689Z,101318.78
2022-08-21T03:20:08.136Z,101316.00
2022-08-21T03:22:35.494Z,101315.09
2022-08-21T03:25:02.294Z,101316.16
2022-08-21T03:27:34.898Z,101311.06
2022-08-21T03:30:05.456Z,101316.31
2022-08-21T03:32:33.003Z,101308.47
2022-08-21T03:35:01.250Z,101311.47
2022-08-21T03:37:28.380Z,101306.56
2022-08-21T03:39:55.407Z,101308.44
2022-08-21T03:42:22.249Z,101300.66
2022-08-21T03:44:49.198Z,101298.28
2022-08-21T03:47:15.972Z,101301.84
2022-08-21T03:49:42.716Z,101297.53
2022-08-21T03:52:09.624Z,101301.50
2022-08-21T03:54:36.356Z,101302.38
2022-08-21T03:57:03.437Z,101295.09
2022-08-21T03:59:30.253Z,101297.72
2022-08-21T04:01:59.751Z,101292.34
2022-08-21T04:04:28.116Z,101287.22
2022-08-21T04:06:55.877Z,101287.56
2022-08-21T04:09:22.648Z,101297.75
2022-08-21T04:11:49.956Z,101297.53
2022-08-21T04:14:17.185Z,101295.59
2022-08-21T04:16:44.118Z,101296.63
2022-08-21T04:19:12.466Z,101301.91
2022-08-21T04:21:40.228Z,101303.03
2022-08-21T04:24:09.434Z,101305.66
2022-08-21T04:26:37.391Z,101307.59
2022-08-21T04:29:05.909Z,101314.44
2022-08-21T04:31:32.955Z,101319.88
2022-08-21T04:34:00.161Z,101316.38
2022-08-21T04:36:26.905Z,101313.38
2022-08-21T04:38:53.835Z,101322.28
2022-08-21T04:41:27.807Z,101329.13
2022-08-21T04:43:58.899Z,101326.06
2022-08-21T04:46:26.079Z,101331.06
2022-08-21T04:48:52.922Z,101327.66
2022-08-21T04:51:34.326Z,101335.53
2022-08-21T04:54:04.222Z,101326.88
2022-08-21T04:56:34.182Z,101330.03
2022-08-21T04:59:04.763Z,101323.31
2022-08-21T05:01:34.936Z,101325.41
2022-08-21T05:04:03.768Z,101328.56
2022-08-21T05:06:32.975Z,101328.25
2022-08-21T05:09:02.139Z,101333.72
2022-08-21T05:11:31.409Z,101324.59
2022-08-21T05:13:58.549Z,101338.13
2022-08-21T05:16:36.474Z,101331.41
2022-08-21T05:19:06.978Z,101336.75
2022-08-21T05:21:34.979Z,101333.78
2022-08-21T05:24:01.982Z,101332.78
2022-08-21T05:26:28.895Z,101338.59
2022-08-21T05:28:55.640Z,101344.97
2022-08-21T05:31:24.560Z,101341.44
2022-08-21T05:33:52.022Z,101345.69
2022-08-21T05:36:19.653Z,101352.09
2022-08-21T05:38:46.929Z,101348.63
2022-08-21T05:41:13.824Z,101346.78
2022-08-21T05:43:40.699Z,101351.56
2022-08-21T05:46:08.687Z,101354.72
2022-08-21T05:48:36.452Z,101349.81
2022-08-21T05:51:09.168Z,101344.72
2022-08-21T05:53:36.384Z,101348.03
2022-08-21T05:56:04.784Z,101346.47
2022-08-21T05:58:33.763Z,101346.50
2022-08-21T06:01:01.427Z,101355.94
2022-08-21T06:03:31.429Z,101354.94
2022-08-21T06:05:58.666Z,101343.53
2022-08-21T06:08:26.409Z,101345.78
2022-08-21T06:10:55.135Z,101331.59
2022-08-21T06:13:22.958Z,101341.91
2022-08-21T06:15:50.338Z,101344.34
2022-08-21T06:18:17.400Z,101347.53
2022-08-21T06:20:45.297Z,101348.84
2022-08-21T06:23:11.983Z,101346.81
2022-08-21T06:25:38.654Z,101351.22
2022-08-21T06:28:08.500Z,101353.63
2022-08-21T06:30:37.035Z,101347.97
2022-08-21T06:33:04.501Z,101358.72
2022-08-21T06:35:31.270Z,101349.88
2022-08-21T06:37:58.559Z,101361.38
2022-08-21T06:40:26.573Z,101370.28
2022-08-21T06:42:53.527Z,101357.53
2022-08-21T06:45:20.725Z,101360.63
2022-08-21T06:47:47.452Z,101357.81
2022-08-21T06:50:14.177Z,101354.41
2022-08-21T06:52:41.257Z,101356.22
2022-08-21T06:55:09.887Z,101349.59
2022-08-21T06:57:36.767Z,101355.72
2022-08-21T07:00:08.377Z,101352.34
2022-08-21T07:02:35.540Z,101348.31
2022-08-21T07:05:18.049Z,101354.31
2022-08-21T07:07:46.005Z,101351.00
2022-08-21T07:10:22.462Z,101361.59
2022-08-21T07:13:01.003Z,101358.66
2022-08-21T07:15:31.177Z,101353.22
2022-08-21T07:17:59.157Z,101352.63
2022-08-21T07:20:26.970Z,101354.59
2022-08-21T07:22:53.719Z,101354.09
2022-08-21T07:25:20.698Z,101349.38
2022-08-21T07:27:47.500Z,101349.72
2022-08-21T07:30:14.286Z,101347.03
2022-08-21T07:32:41.370Z,101350.13
2022-08-21T07:35:08.422Z,101354.19
2022-08-21T07:37:35.197Z,101345.09
2022-08-21T07:40:05.077Z,101353.75
2022-08-21T07:42:31.898Z,101358.53
2022-08-21T07:44:58.633Z,101353.38
2022-08-21T07:47:41.535Z,101355.25
2022-08-21T07:50:10.897Z,101354.09
2022-08-21T07:52:37.957Z,101360.91
2022-08-21T07:55:06.635Z,101347.06
2022-08-21T07:57:33.971Z,101356.13
2022-08-21T08:00:00.690Z,101354.97
2022-08-21T08:02:29.730Z,101363.69
2022-08-21T08:05:04.379Z,101353.81
2022-08-21T08:07:31.513Z,101360.38
2022-08-21T08:09:59.339Z,101343.50
2022-08-21T08:12:30.499Z,101346.28
2022-08-21T08:14:58.741Z,101355.38
2022-08-21T08:17:26.002Z,101347.88
2022-08-21T08:19:52.744Z,101337.91
2022-08-21T08:22:22.720Z,101348.59
2022-08-21T08:24:49.575Z,101345.41
2022-08-21T08:27:17.200Z,101338.75
2022-08-21T08:29:45.025Z,101339.47
2022-08-21T08:32:11.916Z,101333.16
2022-08-21T08:34:40.233Z,101330.44
2022-08-21T08:37:10.774Z,101333.94
2022-08-21T08:39:38.020Z,101326.50
2022-08-21T08:42:32.050Z,101326.50
2022-08-21T08:45:13.907Z,101331.97
2022-08-21T08:47:45.592Z,101323.75
2022-08-21T08:50:29.165Z,101324.47
2022-08-21T08:53:04.286Z,101325.59
2022-08-21T08:55:38.667Z,101328.19
2022-08-21T08:58:05.995Z,101324.53
2022-08-21T09:00:33.068Z,101322.78
2022-08-21T09:03:02.904Z,101323.44
2022-08-21T09:05:42.628Z,101324.63
2022-08-21T09:08:21.615Z,101318.84
2022-08-21T09:10:51.285Z,101313.97
2022-08-21T09:13:38.742Z,101321.47
2022-08-21T09:16:33.053Z,101312.13
2022-08-21T09:19:02.934Z,101324.28
2022-08-21T09:22:11.584Z,101324.03
2022-08-21T09:24:51.357Z,101324.63
2022-08-21T09:27:20.337Z,101318.34
2022-08-21T09:29:53.129Z,101312.09
2022-08-21T09:32:32.463Z,101312.31
2022-08-21T09:35:07.691Z,101307.78
2022-08-21T09:37:56.636Z,101310.91
2022-08-21T09:40:35.643Z,101305.09
2022-08-21T09:43:04.641Z,101315.00
2022-08-21T09:45:34.203Z,101310.13
2022-08-21T09:48:12.210Z,101311.47
2022-08-21T09:50:39.536Z,101306.25
2022-08-21T09:53:06.814Z,101299.66
2022-08-21T09:55:58.085Z,101306.78
2022-08-21T09:58:32.923Z,101299.63
2022-08-21T10:01:02.260Z,101291.59
2022-08-21T10:03:29.323Z,101291.22
2022-08-21T10:06:00.735Z,101289.28
2022-08-21T10:08:29.737Z,101282.59
2022-08-21T10:11:05.318Z,101287.38
2022-08-21T10:13:38.260Z,101283.13
2022-08-21T10:16:23.832Z,101291.44
2022-08-21T10:19:24.931Z,101286.44
2022-08-21T10:22:36.608Z,101280.78
2022-08-21T10:25:35.443Z,101287.00
2022-08-21T10:28:11.457Z,101280.56
2022-08-21T10:30:49.530Z,101272.78
2022-08-21T10:33:35.121Z,101280.34
2022-08-21T10:36:21.367Z,101272.94
2022-08-21T10:39:12.052Z,101278.25
2022-08-21T10:42:09.448Z,101277.06
2022-08-21T10:44:59.485Z,101276.81
2022-08-21T10:47:34.374Z,101265.56
2022-08-21T10:50:07.100Z,101278.94
2022-08-21T10:52:55.426Z,101277.38
2022-08-21T10:55:25.091Z,101281.09
2022-08-21T10:57:58.762Z,101276.88
2022-08-21T11:00:47.729Z,101273.53
2022-08-21T11:03:19.450Z,101274.41
2022-08-21T11:05:52.627Z,101276.53
2022-08-21T11:08:32.165Z,101271.97
2022-08-21T11:11:15.732Z,101274.81
2022-08-21T11:13:52.195Z,101269.59
2022-08-21T11:16:39.010Z,101265.28
2022-08-21T11:19:09.138Z,101267.50
2022-08-21T11:21:53.250Z,101266.88
2022-08-21T11:24:35.017Z,101276.81
2022-08-21T11:27:20.229Z,101272.59
2022-08-21T11:29:51.282Z,101263.56
2022-08-21T11:32:36.956Z,101272.72
2022-08-21T11:35:31.439Z,101268.66
2022-08-21T11:37:58.203Z,101266.41
2022-08-21T11:40:49.999Z,101266.81
2022-08-21T11:43:26.263Z,101264.00
2022-08-21T11:45:59.055Z,101268.06
2022-08-21T11:48:34.917Z,101270.81
2022-08-21T11:51:06.899Z,101273.78
2022-08-21T11:54:11.984Z,101264.69
2022-08-21T11:56:43.385Z,101263.94
2022-08-21T11:59:14.748Z,101259.31
2022-08-21T12:01:45.810Z,101259.88
2022-08-21T12:04:26.259Z,101261.09
2022-08-21T12:06:53.511Z,101253.78
2022-08-21T12:09:26.435Z,101243.94
2022-08-21T12:12:11.390Z,101240.56
2022-08-21T12:14:39.021Z,101244.94
2022-08-21T12:17:12.241Z,101246.41
2022-08-21T12:19:42.394Z,101233.00
2022-08-21T12:22:14.882Z,101224.59
2022-08-21T12:24:47.590Z,101228.88
2022-08-21T12:27:45.976Z,101238.16
2022-08-21T12:30:37.449Z,101244.25
2022-08-21T12:33:07.080Z,101244.09
2022-08-21T12:35:37.069Z,101239.53
2022-08-21T12:38:10.668Z,101247.84
2022-08-21T12:40:43.790Z,101240.88
2022-08-21T12:43:20.415Z,101254.44
2022-08-21T12:45:49.269Z,101246.34
2022-08-21T12:48:25.257Z,101243.97
2022-08-21T12:51:05.880Z,101250.63
2022-08-21T12:53:47.690Z,101249.97
2022-08-21T12:56:17.376Z,101246.59
2022-08-21T12:58:50.295Z,101244.25
2022-08-21T13:01:53.497Z,101243.75
2022-08-21T13:04:33.458Z,101248.16
2022-08-21T13:07:00.888Z,101236.75
2022-08-21T13:09:29.723Z,101235.84
2022-08-21T13:11:57.822Z,101232.19
2022-08-21T13:14:30.520Z,101234.34
2022-08-21T13:17:01.459Z,101238.53
2022-08-21T13:19:30.490Z,101238.41
2022-08-21T13:21:57.388Z,101242.75
2022-08-21T13:24:42.221Z,101238.22
2022-08-21T13:27:31.095Z,101244.38
2022-08-21T13:30:13.649Z,101236.75
2022-08-21T13:32:43.670Z,101238.81
2022-08-21T13:35:28.702Z,101246.00
2022-08-21T13:37:56.082Z,101242.00
2022-08-21T13:40:32.861Z,101244.38
2022-08-21T13:43:00.979Z,101240.97
2022-08-21T13:45:32.310Z,101241.94
2022-08-21T13:48:00.896Z,101231.53
2022-08-21T13:50:35.357Z,101235.91
2022-08-21T13:53:05.207Z,101233.63
2022-08-21T13:55:42.958Z,101231.31
2022-08-21T13:58:11.180Z,101238.13
2022-08-21T14:00:52.247Z,101234.00
2022-08-21T14:03:53.681Z,101221.13
2022-08-21T14:06:28.136Z,101228.47
2022-08-21T14:08:59.148Z,101221.09
2022-08-21T14:11:27.839Z,101211.63
2022-08-21T14:13:56.522Z,101215.41
2022-08-21T14:16:26.726Z,101213.03
2022-08-21T14:19:04.024Z,101231.03
2022-08-21T14:21:40.391Z,101226.75
2022-08-21T14:24:19.433Z,101221.13
2022-08-21T14:26:54.059Z,101226.72
2022-08-21T14:29:23.692Z,101237.19
2022-08-21T14:31:59.345Z,101232.66
2022-08-21T14:34:31.851Z,101222.41
2022-08-21T14:37:02.441Z,101222.78
2022-08-21T14:39:29.193Z,101226.22
2022-08-21T14:41:59.190Z,101229.56
2022-08-21T14:44:27.965Z,101229.84
2022-08-21T14:46:56.897Z,101218.06
2022-08-21T14:49:30.582Z,101223.34
2022-08-21T14:51:58.833Z,101218.94
2022-08-21T14:54:29.583Z,101224.41
2022-08-21T14:57:01.057Z,101225.53
2022-08-21T14:59:27.801Z,101223.28
2022-08-21T15:01:59.100Z,101216.47
2022-08-21T15:04:28.967Z,101221.59
2022-08-21T15:07:03.442Z,101209.59
2022-08-21T15:09:30.287Z,101223.47
2022-08-21T15:11:58.782Z,101217.19
2022-08-21T15:14:28.318Z,101207.34
2022-08-21T15:17:16.689Z,101207.41
2022-08-21T15:19:43.620Z,101205.94
2022-08-21T15:22:18.732Z,101201.47
2022-08-21T15:24:48.807Z,101210.75
2022-08-21T15:27:17.178Z,101223.34
2022-08-21T15:29:43.986Z,101213.56
2022-08-21T15:32:23.928Z,101213.13
2022-08-21T15:34:52.469Z,101218.16
2022-08-21T15:37:50.784Z,101197.31
2022-08-21T15:40:22.067Z,101209.69
2022-08-21T15:46:02.827Z,101210.06
2022-08-21T15:48:29.917Z,101201.38
2022-08-21T15:50:56.730Z,101197.94
2022-08-21T15:53:26.292Z,101197.00
2022-08-21T15:55:52.993Z,101198.50
2022-08-21T15:58:21.739Z,101197.09
2022-08-21T16:00:48.763Z,101188.88
2022-08-21T16:03:17.924Z,101195.47
2022-08-21T16:05:50.137Z,101195.63
2022-08-21T16:08:16.935Z,101195.78
2022-08-21T16:10:43.715Z,101192.94
2022-08-21T16:13:19.220Z,101194.03
2022-08-21T16:15:49.361Z,101188.13
2022-08-21T16:18:16.188Z,101192.31
2022-08-21T16:20:42.982Z,101187.69
2022-08-21T16:23:09.747Z,101193.00
2022-08-21T16:25:38.798Z,101193.16
2022-08-21T16:28:12.271Z,101190.47
2022-08-21T16:30:40.955Z,101183.38
2022-08-21T16:33:08.615Z,101179.03
2022-08-21T16:35:35.378Z,101183.47
2022-08-21T16:38:05.322Z,101184.97
2022-08-21T16:40:32.158Z,101180.19
2022-08-21T16:42:59.162Z,101188.75
2022-08-21T16:45:28.801Z,101175.31
2022-08-21T16:47:59.566Z,101180.94
2022-08-21T16:50:26.350Z,101189.56
2022-08-21T16:52:54.388Z,101182.63
2022-08-21T16:55:21.282Z,101175.13
2022-08-21T16:57:48.040Z,101182.19
2022-08-21T17:00:18.313Z,101181.06
2022-08-21T17:02:47.884Z,101175.00
2022-08-21T17:05:14.895Z,101184.91
2022-08-21T17:07:43.190Z,101177.91
2022-08-21T17:10:10.825Z,101179.84
2022-08-21T17:12:37.722Z,101171.44
2022-08-21T17:15:21.602Z,101177.56
2022-08-21T17:17:48.599Z,101169.38
2022-08-21T17:20:15.770Z,101171.44
2022-08-21T17:22:42.970Z,101172.72
2022-08-21T17:25:10.325Z,101173.72
2022-08-21T17:27:37.080Z,101169.19
2022-08-21T17:30:06.485Z,101166.72
2022-08-21T17:32:33.289Z,101165.59
2022-08-21T17:35:02.706Z,101170.66
2022-08-21T17:37:29.624Z,101168.22
2022-08-21T17:39:56.886Z,101171.81
2022-08-21T17:42:26.196Z,101172.50
2022-08-21T17:44:56.315Z,101169.59
2022-08-21T17:47:23.277Z,101172.00
2022-08-21T17:49:50.190Z,101171.44
2022-08-21T17:52:16.989Z,101163.25
2022-08-21T17:54:43.712Z,101168.53
2022-08-21T17:57:22.954Z,101166.09
2022-08-21T17:59:49.897Z,101162.59
2022-08-21T18:02:19.988Z,101163.78
2022-08-21T18:04:50.508Z,101167.44
2022-08-21T18:07:32.379Z,101165.34
2022-08-21T18:10:06.445Z,101159.91
2022-08-21T18:12:34.085Z,101161.91
2022-08-21T18:15:02.254Z,101168.69
2022-08-21T18:17:30.377Z,101175.84
2022-08-21T18:19:59.375Z,101175.41
2022-08-21T18:22:27.138Z,101169.88
2022-08-21T18:24:53.910Z,101177.06
2022-08-21T18:27:21.540Z,101175.56
2022-08-21T18:29:54.901Z,101164.47
2022-08-21T18:32:31.234Z,101172.88
2022-08-21T18:37:41.989Z,101171.81
2022-08-21T18:40:09.704Z,101174.22
2022-08-21T18:42:55.194Z,101161.13
2022-08-21T18:45:23.221Z,101164.72
2022-08-21T18:47:55.316Z,101171.19
2022-08-21T18:50:25.028Z,101179.03
2022-08-21T18:53:24.109Z,101179.06
2022-08-21T18:55:42.428Z,101176.69
2022-08-21T18:58:09.388Z,101175.59
2022-08-21T19:00:45.908Z,101178.38
2022-08-21T19:03:22.798Z,101186.72
2022-08-21T19:05:52.206Z,101189.53
2022-08-21T19:08:20.708Z,101192.28
2022-08-21T19:10:49.127Z,101192.28
2022-08-21T19:13:18.486Z,101192.44
2022-08-21T19:15:49.949Z,101188.50
2022-08-21T19:18:19.376Z,101199.63
2022-08-21T19:20:48.191Z,101196.47
2022-08-21T19:23:16.746Z,101208.00
2022-08-21T19:25:51.792Z,101202.13
2022-08-21T19:28:22.946Z,101200.59
2022-08-21T19:31:02.298Z,101206.56
2022-08-21T19:33:35.041Z,101209.75
2022-08-21T19:36:04.549Z,101212.91
2022-08-21T19:38:31.425Z,101216.09
2022-08-21T19:40:59.028Z,101210.53
2022-08-21T19:43:26.217Z,101224.91
2022-08-21T19:45:57.191Z,101232.53
2022-08-21T19:48:24.810Z,101226.91
2022-08-21T19:50:53.182Z,101225.00
2022-08-21T19:53:20.117Z,101220.28
2022-08-21T19:55:48.211Z,101225.44
2022-08-21T19:58:37.428Z,101210.88
2022-08-21T20:01:11.561Z,101215.59
2022-08-21T20:03:43.872Z,101216.13
2022-08-21T20:06:11.114Z,101220.88
2022-08-21T20:08:38.141Z,101222.00
2022-08-21T20:11:05.388Z,101224.38
2022-08-21T20:13:33.973Z,101218.13
2022-08-21T20:16:09.224Z,101220.06
2022-08-21T20:18:37.499Z,101221.59
2022-08-21T20:21:07.727Z,101225.91
2022-08-21T20:23:35.792Z,101217.25
2022-08-21T20:26:10.022Z,101225.94
2022-08-21T20:28:37.491Z,101231.91
2022-08-21T20:31:09.504Z,101222.81
2022-08-21T20:33:37.402Z,101222.06
2022-08-21T20:36:04.880Z,101225.59
2022-08-21T20:38:31.838Z,101228.34
2022-08-21T20:40:59.011Z,101222.88
2022-08-21T20:43:27.988Z,101212.97
2022-08-21T20:45:55.505Z,101224.84
2022-08-21T20:48:31.852Z,101218.50
2022-08-21T20:51:31.121Z,101220.47
2022-08-21T20:54:07.948Z,101224.06
2022-08-21T20:56:42.490Z,101220.09
2022-08-21T20:59:19.964Z,101214.94
2022-08-21T21:01:48.437Z,101212.19
2022-08-21T21:04:21.414Z,101227.59
2022-08-21T21:06:49.773Z,101212.16
2022-08-21T21:09:27.133Z,101220.06
2022-08-21T21:12:01.015Z,101222.06
2022-08-21T21:14:48.724Z,101216.53
2022-08-21T21:17:30.633Z,101213.00
2022-08-21T21:20:03.591Z,101218.13
2022-08-21T21:22:37.057Z,101218.13
2022-08-21T21:25:11.212Z,101200.28
2022-08-21T21:27:49.058Z,101209.41
2022-08-21T21:30:24.380Z,101205.47
2022-08-21T21:32:53.214Z,101209.81
2022-08-21T21:35:33.074Z,101208.25
2022-08-21T21:38:22.734Z,101207.81
2022-08-21T21:41:07.746Z,101203.91
2022-08-21T21:43:56.700Z,101203.06
2022-08-21T21:46:49.625Z,101204.63
2022-08-21T21:49:49.666Z,101197.13
2022-08-21T21:52:28.495Z,101194.41
2022-08-21T21:58:10.642Z,101212.19
2022-08-21T22:00:52.048Z,101202.66
2022-08-21T22:03:26.743Z,101205.06
2022-08-21T22:05:56.189Z,101201.50
2022-08-21T22:08:39.250Z,101203.91
2022-08-21T22:11:24.072Z,101197.91
2022-08-21T22:14:05.804Z,101195.59
2022-08-21T22:16:36.014Z,101202.69
2022-08-21T22:19:29.327Z,101196.00
2022-08-21T22:22:06.675Z,101208.22
2022-08-21T22:24:40.320Z,101205.06
2022-08-21T22:27:11.132Z,101206.66
2022-08-21T22:29:49.456Z,101208.22
2022-08-21T22:32:40.152Z,101202.72
2022-08-21T22:35:20.134Z,101203.50
2022-08-21T22:37:53.534Z,101207.44
2022-08-21T22:40:23.763Z,101211.78
2022-08-21T22:42:58.992Z,101208.66
2022-08-21T22:45:26.674Z,101213.78
2022-08-21T22:47:54.009Z,101207.84
2022-08-21T22:50:26.968Z,101202.72
2022-08-21T22:53:00.479Z,101203.88
2022-08-21T22:55:37.668Z,101210.22
2022-08-21T22:58:14.650Z,101205.06
2022-08-21T23:00:49.547Z,101206.66
2022-08-21T23:03:43.625Z,101210.22
2022-08-21T23:06:35.080Z,101197.94
2022-08-21T23:09:02.262Z,101204.28
2022-08-21T23:11:51.024Z,101200.72
2022-08-21T23:14:22.781Z,101199.47
2022-08-21T23:17:08.251Z,101206.63
2022-08-21T23:19:56.664Z,101205.88
2022-08-21T23:22:49.096Z,101200.31
2022-08-21T23:25:38.926Z,101194.41
2022-08-21T23:28:23.991Z,101202.31
2022-08-21T23:31:25.387Z,101199.13
2022-08-21T23:34:15.826Z,101197.91
2022-08-21T23:37:23.661Z,101200.34
2022-08-21T23:40:04.044Z,101185.31
2022-08-21T23:43:02.242Z,101194.41
2022-08-21T23:45:36.639Z,101186.09
2022-08-21T23:51:13.584Z,101186.06
2022-08-21T23:53:50.579Z,101190.03
2022-08-21T23:56:32.185Z,101182.91
